sensor_id;sensor_type;location;lat;lon;timestamp;P1;durP1;ratioP1;P2;durP2;ratioP2
44810;SDS011;30526;52.184;4.476;2023-04-15T00:01:21;9.38;;;4.93;;
44810;SDS011;30526;52.184;4.476;2023-04-15T00:03:49;12.68;;;4.63;;
44810;SDS011;30526;52.184;4.476;2023-04-15T00:06:16;11.88;;;5.68;;
44810;SDS011;30526;52.184;4.476;2023-04-15T00:08:43;13.38;;;4.13;;
44810;SDS011;30526;52.184;4.476;2023-04-15T00:11:09;11.55;;;5.22;;
44810;SDS011;30526;52.184;4.476;2023-04-15T00:13:35;13.07;;;5.93;;
44810;SDS011;30526;52.184;4.476;2023-04-15T00:16:01;11.75;;;5.38;;
44810;SDS011;30526;52.184;4.476;2023-04-15T00:18:28;12.70;;;5.72;;
44810;SDS011;30526;52.184;4.476;2023-04-15T00:20:54;12.05;;;5.38;;
44810;SDS011;30526;52.184;4.476;2023-04-15T00:23:20;11.68;;;5.60;;
44810;SDS011;30526;52.184;4.476;2023-04-15T00:25:46;12.27;;;4.95;;
44810;SDS011;30526;52.184;4.476;2023-04-15T00:28:12;12.13;;;5.60;;
44810;SDS011;30526;52.184;4.476;2023-04-15T00:30:38;16.92;;;5.90;;
44810;SDS011;30526;52.184;4.476;2023-04-15T00:33:05;12.43;;;5.97;;
44810;SDS011;30526;52.184;4.476;2023-04-15T00:35:31;15.82;;;5.70;;
44810;SDS011;30526;52.184;4.476;2023-04-15T00:37:58;11.57;;;5.68;;
44810;SDS011;30526;52.184;4.476;2023-04-15T00:40:24;13.25;;;5.32;;
44810;SDS011;30526;52.184;4.476;2023-04-15T00:42:51;8.48;;;4.07;;
44810;SDS011;30526;52.184;4.476;2023-04-15T00:45:18;11.03;;;6.27;;
44810;SDS011;30526;52.184;4.476;2023-04-15T00:47:44;12.35;;;6.03;;
44810;SDS011;30526;52.184;4.476;2023-04-15T00:50:11;10.00;;;6.28;;
44810;SDS011;30526;52.184;4.476;2023-04-15T00:52:37;12.60;;;5.27;;
44810;SDS011;30526;52.184;4.476;2023-04-15T00:55:04;9.63;;;4.57;;
44810;SDS011;30526;52.184;4.476;2023-04-15T00:57:31;11.73;;;4.43;;
44810;SDS011;30526;52.184;4.476;2023-04-15T00:59:57;9.45;;;5.57;;
44810;SDS011;30526;52.184;4.476;2023-04-15T01:02:23;9.82;;;5.43;;
44810;SDS011;30526;52.184;4.476;2023-04-15T01:04:49;10.80;;;6.03;;
44810;SDS011;30526;52.184;4.476;2023-04-15T01:07:16;7.82;;;4.03;;
44810;SDS011;30526;52.184;4.476;2023-04-15T01:09:42;11.57;;;6.10;;
44810;SDS011;30526;52.184;4.476;2023-04-15T01:12:10;7.57;;;4.65;;
44810;SDS011;30526;52.184;4.476;2023-04-15T01:14:37;11.88;;;5.28;;
44810;SDS011;30526;52.184;4.476;2023-04-15T01:17:03;12.52;;;5.45;;
44810;SDS011;30526;52.184;4.476;2023-04-15T01:19:29;11.05;;;6.10;;
44810;SDS011;30526;52.184;4.476;2023-04-15T01:21:55;10.60;;;5.75;;
44810;SDS011;30526;52.184;4.476;2023-04-15T01:24:21;14.50;;;6.53;;
44810;SDS011;30526;52.184;4.476;2023-04-15T01:26:48;15.23;;;6.32;;
44810;SDS011;30526;52.184;4.476;2023-04-15T01:29:14;11.80;;;5.93;;
44810;SDS011;30526;52.184;4.476;2023-04-15T01:31:47;12.43;;;5.90;;
44810;SDS011;30526;52.184;4.476;2023-04-15T01:34:14;9.48;;;5.47;;
44810;SDS011;30526;52.184;4.476;2023-04-15T01:36:40;8.43;;;5.82;;
44810;SDS011;30526;52.184;4.476;2023-04-15T01:39:07;10.70;;;5.63;;
44810;SDS011;30526;52.184;4.476;2023-04-15T01:41:33;12.05;;;6.07;;
44810;SDS011;30526;52.184;4.476;2023-04-15T01:43:59;14.20;;;6.55;;
44810;SDS011;30526;52.184;4.476;2023-04-15T01:46:25;8.43;;;4.63;;
44810;SDS011;30526;52.184;4.476;2023-04-15T01:48:51;8.98;;;5.55;;
44810;SDS011;30526;52.184;4.476;2023-04-15T01:51:17;11.57;;;5.75;;
44810;SDS011;30526;52.184;4.476;2023-04-15T01:53:44;10.95;;;6.38;;
44810;SDS011;30526;52.184;4.476;2023-04-15T01:56:10;7.70;;;4.57;;
44810;SDS011;30526;52.184;4.476;2023-04-15T01:58:36;11.93;;;6.38;;
44810;SDS011;30526;52.184;4.476;2023-04-15T02:01:02;8.68;;;6.28;;
44810;SDS011;30526;52.184;4.476;2023-04-15T02:03:29;14.43;;;6.05;;
44810;SDS011;30526;52.184;4.476;2023-04-15T02:05:55;14.32;;;6.55;;
44810;SDS011;30526;52.184;4.476;2023-04-15T02:08:21;10.60;;;4.67;;
44810;SDS011;30526;52.184;4.476;2023-04-15T02:10:47;10.48;;;5.82;;
44810;SDS011;30526;52.184;4.476;2023-04-15T02:13:13;13.27;;;6.30;;
44810;SDS011;30526;52.184;4.476;2023-04-15T02:15:44;7.80;;;4.78;;
44810;SDS011;30526;52.184;4.476;2023-04-15T02:18:11;13.30;;;6.97;;
44810;SDS011;30526;52.184;4.476;2023-04-15T02:20:37;12.77;;;6.43;;
44810;SDS011;30526;52.184;4.476;2023-04-15T02:23:03;10.38;;;6.35;;
44810;SDS011;30526;52.184;4.476;2023-04-15T02:25:31;9.70;;;6.57;;
44810;SDS011;30526;52.184;4.476;2023-04-15T02:27:57;14.93;;;6.50;;
44810;SDS011;30526;52.184;4.476;2023-04-15T02:30:23;10.25;;;6.35;;
44810;SDS011;30526;52.184;4.476;2023-04-15T02:32:50;15.57;;;6.15;;
44810;SDS011;30526;52.184;4.476;2023-04-15T02:35:16;15.38;;;6.35;;
44810;SDS011;30526;52.184;4.476;2023-04-15T02:37:43;12.85;;;6.28;;
44810;SDS011;30526;52.184;4.476;2023-04-15T02:40:10;14.25;;;6.75;;
44810;SDS011;30526;52.184;4.476;2023-04-15T02:42:39;14.90;;;6.50;;
44810;SDS011;30526;52.184;4.476;2023-04-15T02:45:06;13.60;;;6.65;;
44810;SDS011;30526;52.184;4.476;2023-04-15T02:47:32;10.13;;;4.53;;
44810;SDS011;30526;52.184;4.476;2023-04-15T02:49:59;12.45;;;6.13;;
44810;SDS011;30526;52.184;4.476;2023-04-15T02:52:26;11.65;;;6.75;;
44810;SDS011;30526;52.184;4.476;2023-04-15T02:54:52;10.45;;;6.47;;
44810;SDS011;30526;52.184;4.476;2023-04-15T02:57:21;12.95;;;6.07;;
44810;SDS011;30526;52.184;4.476;2023-04-15T02:59:47;10.38;;;5.97;;
44810;SDS011;30526;52.184;4.476;2023-04-15T03:02:13;11.25;;;6.20;;
44810;SDS011;30526;52.184;4.476;2023-04-15T03:04:40;11.57;;;6.40;;
44810;SDS011;30526;52.184;4.476;2023-04-15T03:07:06;11.23;;;5.72;;
44810;SDS011;30526;52.184;4.476;2023-04-15T03:09:32;12.18;;;5.60;;
44810;SDS011;30526;52.184;4.476;2023-04-15T03:11:58;11.20;;;6.10;;
44810;SDS011;30526;52.184;4.476;2023-04-15T03:14:25;13.18;;;5.95;;
44810;SDS011;30526;52.184;4.476;2023-04-15T03:16:51;11.73;;;5.40;;
44810;SDS011;30526;52.184;4.476;2023-04-15T03:19:17;9.07;;;5.50;;
44810;SDS011;30526;52.184;4.476;2023-04-15T03:21:43;10.77;;;5.78;;
44810;SDS011;30526;52.184;4.476;2023-04-15T03:24:09;8.40;;;5.50;;
44810;SDS011;30526;52.184;4.476;2023-04-15T03:26:35;8.80;;;5.30;;
44810;SDS011;30526;52.184;4.476;2023-04-15T03:29:01;10.70;;;5.85;;
44810;SDS011;30526;52.184;4.476;2023-04-15T03:31:27;9.93;;;5.95;;
44810;SDS011;30526;52.184;4.476;2023-04-15T03:33:54;11.70;;;6.28;;
44810;SDS011;30526;52.184;4.476;2023-04-15T03:36:20;12.77;;;5.82;;
44810;SDS011;30526;52.184;4.476;2023-04-15T03:38:46;14.25;;;6.30;;
44810;SDS011;30526;52.184;4.476;2023-04-15T03:41:13;9.48;;;4.32;;
44810;SDS011;30526;52.184;4.476;2023-04-15T03:43:39;10.15;;;5.35;;
44810;SDS011;30526;52.184;4.476;2023-04-15T03:46:05;12.82;;;6.20;;
44810;SDS011;30526;52.184;4.476;2023-04-15T03:48:31;13.98;;;5.88;;
44810;SDS011;30526;52.184;4.476;2023-04-15T03:50:57;10.25;;;5.90;;
44810;SDS011;30526;52.184;4.476;2023-04-15T03:53:23;10.50;;;6.32;;
44810;SDS011;30526;52.184;4.476;2023-04-15T03:55:50;11.70;;;6.57;;
44810;SDS011;30526;52.184;4.476;2023-04-15T03:58:16;12.27;;;6.50;;
44810;SDS011;30526;52.184;4.476;2023-04-15T04:00:42;7.33;;;5.03;;
44810;SDS011;30526;52.184;4.476;2023-04-15T04:03:08;10.40;;;6.03;;
44810;SDS011;30526;52.184;4.476;2023-04-15T04:05:35;7.55;;;4.72;;
44810;SDS011;30526;52.184;4.476;2023-04-15T04:08:03;7.82;;;4.95;;
44810;SDS011;30526;52.184;4.476;2023-04-15T04:10:29;11.30;;;6.50;;
44810;SDS011;30526;52.184;4.476;2023-04-15T04:12:55;13.93;;;6.32;;
44810;SDS011;30526;52.184;4.476;2023-04-15T04:15:21;12.15;;;6.28;;
44810;SDS011;30526;52.184;4.476;2023-04-15T04:17:47;14.70;;;6.90;;
44810;SDS011;30526;52.184;4.476;2023-04-15T04:20:13;12.38;;;6.15;;
44810;SDS011;30526;52.184;4.476;2023-04-15T04:22:39;13.65;;;6.90;;
44810;SDS011;30526;52.184;4.476;2023-04-15T04:25:06;9.85;;;6.40;;
44810;SDS011;30526;52.184;4.476;2023-04-15T04:27:32;7.97;;;5.28;;
44810;SDS011;30526;52.184;4.476;2023-04-15T04:29:59;8.45;;;5.07;;
44810;SDS011;30526;52.184;4.476;2023-04-15T04:32:25;9.40;;;5.28;;
44810;SDS011;30526;52.184;4.476;2023-04-15T04:34:51;15.75;;;7.22;;
44810;SDS011;30526;52.184;4.476;2023-04-15T04:37:17;14.80;;;6.97;;
44810;SDS011;30526;52.184;4.476;2023-04-15T04:39:43;11.13;;;6.63;;
44810;SDS011;30526;52.184;4.476;2023-04-15T04:42:09;10.98;;;6.82;;
44810;SDS011;30526;52.184;4.476;2023-04-15T04:44:35;12.45;;;6.43;;
44810;SDS011;30526;52.184;4.476;2023-04-15T04:47:02;13.75;;;7.55;;
44810;SDS011;30526;52.184;4.476;2023-04-15T04:49:28;11.95;;;7.30;;
44810;SDS011;30526;52.184;4.476;2023-04-15T04:51:54;19.80;;;7.50;;
44810;SDS011;30526;52.184;4.476;2023-04-15T04:54:20;12.23;;;7.53;;
44810;SDS011;30526;52.184;4.476;2023-04-15T04:56:47;11.18;;;5.53;;
44810;SDS011;30526;52.184;4.476;2023-04-15T04:59:13;10.80;;;6.72;;
44810;SDS011;30526;52.184;4.476;2023-04-15T05:01:39;15.02;;;6.95;;
44810;SDS011;30526;52.184;4.476;2023-04-15T05:04:06;12.68;;;7.28;;
44810;SDS011;30526;52.184;4.476;2023-04-15T05:06:32;14.00;;;6.47;;
44810;SDS011;30526;52.184;4.476;2023-04-15T05:08:59;11.80;;;7.18;;
44810;SDS011;30526;52.184;4.476;2023-04-15T05:11:25;13.85;;;7.15;;
44810;SDS011;30526;52.184;4.476;2023-04-15T05:13:52;11.55;;;7.10;;
44810;SDS011;30526;52.184;4.476;2023-04-15T05:16:18;13.25;;;7.13;;
44810;SDS011;30526;52.184;4.476;2023-04-15T05:18:44;15.23;;;7.45;;
44810;SDS011;30526;52.184;4.476;2023-04-15T05:21:10;15.02;;;6.88;;
44810;SDS011;30526;52.184;4.476;2023-04-15T05:23:36;12.55;;;7.43;;
44810;SDS011;30526;52.184;4.476;2023-04-15T05:26:03;14.15;;;7.45;;
44810;SDS011;30526;52.184;4.476;2023-04-15T05:28:29;12.23;;;6.93;;
44810;SDS011;30526;52.184;4.476;2023-04-15T05:30:55;14.27;;;7.00;;
44810;SDS011;30526;52.184;4.476;2023-04-15T05:33:21;15.90;;;7.75;;
44810;SDS011;30526;52.184;4.476;2023-04-15T05:35:48;9.53;;;5.53;;
44810;SDS011;30526;52.184;4.476;2023-04-15T05:38:14;13.55;;;7.05;;
44810;SDS011;30526;52.184;4.476;2023-04-15T05:40:40;12.00;;;7.90;;
44810;SDS011;30526;52.184;4.476;2023-04-15T05:43:06;14.13;;;7.65;;
44810;SDS011;30526;52.184;4.476;2023-04-15T05:45:33;12.30;;;7.20;;
44810;SDS011;30526;52.184;4.476;2023-04-15T05:47:59;11.95;;;7.97;;
44810;SDS011;30526;52.184;4.476;2023-04-15T05:50:25;14.52;;;7.43;;
44810;SDS011;30526;52.184;4.476;2023-04-15T05:52:51;12.20;;;7.72;;
44810;SDS011;30526;52.184;4.476;2023-04-15T05:55:17;13.73;;;7.80;;
44810;SDS011;30526;52.184;4.476;2023-04-15T05:57:44;11.73;;;7.40;;
44810;SDS011;30526;52.184;4.476;2023-04-15T06:00:10;13.55;;;7.15;;
44810;SDS011;30526;52.184;4.476;2023-04-15T06:02:37;13.40;;;5.43;;
44810;SDS011;30526;52.184;4.476;2023-04-15T06:05:03;14.45;;;7.18;;
44810;SDS011;30526;52.184;4.476;2023-04-15T06:07:33;12.15;;;7.30;;
44810;SDS011;30526;52.184;4.476;2023-04-15T06:10:00;10.47;;;6.17;;
44810;SDS011;30526;52.184;4.476;2023-04-15T06:12:26;17.20;;;7.95;;
44810;SDS011;30526;52.184;4.476;2023-04-15T06:14:52;10.48;;;5.72;;
44810;SDS011;30526;52.184;4.476;2023-04-15T06:17:18;13.52;;;8.05;;
44810;SDS011;30526;52.184;4.476;2023-04-15T06:19:44;16.05;;;8.32;;
44810;SDS011;30526;52.184;4.476;2023-04-15T06:22:10;11.40;;;7.65;;
44810;SDS011;30526;52.184;4.476;2023-04-15T06:24:36;13.27;;;7.70;;
44810;SDS011;30526;52.184;4.476;2023-04-15T06:27:03;14.38;;;8.85;;
44810;SDS011;30526;52.184;4.476;2023-04-15T06:29:29;14.18;;;8.20;;
44810;SDS011;30526;52.184;4.476;2023-04-15T06:31:55;16.33;;;8.35;;
44810;SDS011;30526;52.184;4.476;2023-04-15T06:34:21;12.02;;;7.93;;
44810;SDS011;30526;52.184;4.476;2023-04-15T06:36:47;16.30;;;8.23;;
44810;SDS011;30526;52.184;4.476;2023-04-15T06:39:13;15.52;;;8.40;;
44810;SDS011;30526;52.184;4.476;2023-04-15T06:41:40;11.27;;;7.07;;
44810;SDS011;30526;52.184;4.476;2023-04-15T06:44:06;17.27;;;7.60;;
44810;SDS011;30526;52.184;4.476;2023-04-15T06:46:32;14.77;;;8.57;;
44810;SDS011;30526;52.184;4.476;2023-04-15T06:48:58;15.30;;;8.52;;
44810;SDS011;30526;52.184;4.476;2023-04-15T06:51:24;14.73;;;7.82;;
44810;SDS011;30526;52.184;4.476;2023-04-15T06:53:51;12.65;;;7.38;;
44810;SDS011;30526;52.184;4.476;2023-04-15T06:56:17;16.55;;;8.15;;
44810;SDS011;30526;52.184;4.476;2023-04-15T06:58:43;12.95;;;8.10;;
44810;SDS011;30526;52.184;4.476;2023-04-15T07:01:09;13.50;;;7.88;;
44810;SDS011;30526;52.184;4.476;2023-04-15T07:03:35;11.70;;;7.55;;
44810;SDS011;30526;52.184;4.476;2023-04-15T07:06:02;11.52;;;7.70;;
44810;SDS011;30526;52.184;4.476;2023-04-15T07:08:30;12.23;;;8.15;;
44810;SDS011;30526;52.184;4.476;2023-04-15T07:10:56;10.30;;;7.55;;
44810;SDS011;30526;52.184;4.476;2023-04-15T07:13:22;12.18;;;7.28;;
44810;SDS011;30526;52.184;4.476;2023-04-15T07:15:48;14.35;;;7.80;;
44810;SDS011;30526;52.184;4.476;2023-04-15T07:18:14;11.48;;;7.28;;
44810;SDS011;30526;52.184;4.476;2023-04-15T07:20:40;11.80;;;8.00;;
44810;SDS011;30526;52.184;4.476;2023-04-15T07:23:06;12.20;;;7.55;;
44810;SDS011;30526;52.184;4.476;2023-04-15T07:25:32;11.15;;;6.72;;
44810;SDS011;30526;52.184;4.476;2023-04-15T07:27:58;10.63;;;6.80;;
44810;SDS011;30526;52.184;4.476;2023-04-15T07:30:24;10.70;;;7.10;;
44810;SDS011;30526;52.184;4.476;2023-04-15T07:32:51;15.70;;;7.88;;
44810;SDS011;30526;52.184;4.476;2023-04-15T07:35:17;11.88;;;6.82;;
44810;SDS011;30526;52.184;4.476;2023-04-15T07:37:45;12.88;;;7.60;;
44810;SDS011;30526;52.184;4.476;2023-04-15T07:40:11;11.38;;;7.82;;
44810;SDS011;30526;52.184;4.476;2023-04-15T07:42:38;10.77;;;6.18;;
44810;SDS011;30526;52.184;4.476;2023-04-15T07:45:05;11.85;;;7.97;;
44810;SDS011;30526;52.184;4.476;2023-04-15T07:47:31;10.95;;;7.65;;
44810;SDS011;30526;52.184;4.476;2023-04-15T07:49:57;13.07;;;7.78;;
44810;SDS011;30526;52.184;4.476;2023-04-15T07:52:24;15.43;;;7.95;;
44810;SDS011;30526;52.184;4.476;2023-04-15T07:54:50;11.65;;;8.40;;
44810;SDS011;30526;52.184;4.476;2023-04-15T07:57:16;14.57;;;7.90;;
44810;SDS011;30526;52.184;4.476;2023-04-15T07:59:42;16.88;;;8.63;;
44810;SDS011;30526;52.184;4.476;2023-04-15T08:02:08;10.20;;;7.80;;
44810;SDS011;30526;52.184;4.476;2023-04-15T08:04:35;8.43;;;6.25;;
44810;SDS011;30526;52.184;4.476;2023-04-15T08:07:02;14.13;;;7.85;;
44810;SDS011;30526;52.184;4.476;2023-04-15T08:09:29;10.75;;;7.50;;
44810;SDS011;30526;52.184;4.476;2023-04-15T08:11:55;9.65;;;6.63;;
44810;SDS011;30526;52.184;4.476;2023-04-15T08:14:21;10.65;;;6.90;;
44810;SDS011;30526;52.184;4.476;2023-04-15T08:16:47;12.88;;;6.85;;
44810;SDS011;30526;52.184;4.476;2023-04-15T08:19:14;9.27;;;6.15;;
44810;SDS011;30526;52.184;4.476;2023-04-15T08:21:40;9.25;;;5.85;;
44810;SDS011;30526;52.184;4.476;2023-04-15T08:24:06;9.47;;;6.23;;
44810;SDS011;30526;52.184;4.476;2023-04-15T08:26:33;10.25;;;6.55;;
44810;SDS011;30526;52.184;4.476;2023-04-15T08:28:59;11.02;;;6.47;;
44810;SDS011;30526;52.184;4.476;2023-04-15T08:31:25;9.55;;;6.43;;
44810;SDS011;30526;52.184;4.476;2023-04-15T08:33:52;7.47;;;4.20;;
44810;SDS011;30526;52.184;4.476;2023-04-15T08:36:18;9.63;;;6.18;;
44810;SDS011;30526;52.184;4.476;2023-04-15T08:38:45;8.88;;;5.85;;
44810;SDS011;30526;52.184;4.476;2023-04-15T08:41:15;7.57;;;5.35;;
44810;SDS011;30526;52.184;4.476;2023-04-15T08:43:48;9.55;;;6.05;;
44810;SDS011;30526;52.184;4.476;2023-04-15T08:46:16;11.23;;;6.75;;
44810;SDS011;30526;52.184;4.476;2023-04-15T08:48:43;10.27;;;6.75;;
44810;SDS011;30526;52.184;4.476;2023-04-15T08:51:10;10.95;;;6.47;;
44810;SDS011;30526;52.184;4.476;2023-04-15T08:53:40;9.23;;;6.28;;
44810;SDS011;30526;52.184;4.476;2023-04-15T08:56:06;9.30;;;6.47;;
44810;SDS011;30526;52.184;4.476;2023-04-15T08:58:34;11.85;;;6.47;;
44810;SDS011;30526;52.184;4.476;2023-04-15T09:01:01;10.73;;;6.82;;
44810;SDS011;30526;52.184;4.476;2023-04-15T09:03:27;10.02;;;6.85;;
44810;SDS011;30526;52.184;4.476;2023-04-15T09:05:53;9.35;;;5.90;;
44810;SDS011;30526;52.184;4.476;2023-04-15T09:08:19;10.18;;;5.88;;
44810;SDS011;30526;52.184;4.476;2023-04-15T09:10:46;11.48;;;6.03;;
44810;SDS011;30526;52.184;4.476;2023-04-15T09:13:12;11.60;;;6.32;;
44810;SDS011;30526;52.184;4.476;2023-04-15T09:15:38;8.30;;;4.55;;
44810;SDS011;30526;52.184;4.476;2023-04-15T09:18:05;10.45;;;5.75;;
44810;SDS011;30526;52.184;4.476;2023-04-15T09:20:37;10.27;;;5.90;;
44810;SDS011;30526;52.184;4.476;2023-04-15T09:23:10;9.07;;;5.55;;
44810;SDS011;30526;52.184;4.476;2023-04-15T09:25:37;6.60;;;4.35;;
44810;SDS011;30526;52.184;4.476;2023-04-15T09:28:06;10.65;;;4.75;;
44810;SDS011;30526;52.184;4.476;2023-04-15T09:30:32;9.77;;;5.10;;
44810;SDS011;30526;52.184;4.476;2023-04-15T09:33:02;10.45;;;5.10;;
44810;SDS011;30526;52.184;4.476;2023-04-15T09:35:32;7.22;;;4.43;;
44810;SDS011;30526;52.184;4.476;2023-04-15T09:38:03;6.95;;;2.88;;
44810;SDS011;30526;52.184;4.476;2023-04-15T09:40:30;6.72;;;2.58;;
44810;SDS011;30526;52.184;4.476;2023-04-15T09:43:00;5.65;;;2.35;;
44810;SDS011;30526;52.184;4.476;2023-04-15T09:45:27;5.15;;;2.78;;
44810;SDS011;30526;52.184;4.476;2023-04-15T09:47:53;5.35;;;2.72;;
44810;SDS011;30526;52.184;4.476;2023-04-15T09:50:19;4.97;;;2.80;;
44810;SDS011;30526;52.184;4.476;2023-04-15T09:52:45;7.97;;;2.90;;
44810;SDS011;30526;52.184;4.476;2023-04-15T09:55:12;4.07;;;2.70;;
44810;SDS011;30526;52.184;4.476;2023-04-15T09:57:39;8.38;;;3.42;;
44810;SDS011;30526;52.184;4.476;2023-04-15T10:00:07;5.03;;;3.20;;
44810;SDS011;30526;52.184;4.476;2023-04-15T10:02:35;9.15;;;3.40;;
44810;SDS011;30526;52.184;4.476;2023-04-15T10:05:01;6.22;;;2.95;;
44810;SDS011;30526;52.184;4.476;2023-04-15T10:07:28;5.75;;;3.80;;
44810;SDS011;30526;52.184;4.476;2023-04-15T10:09:54;6.05;;;3.55;;
44810;SDS011;30526;52.184;4.476;2023-04-15T10:12:21;7.85;;;3.33;;
44810;SDS011;30526;52.184;4.476;2023-04-15T10:14:47;8.10;;;3.28;;
44810;SDS011;30526;52.184;4.476;2023-04-15T10:17:16;6.18;;;2.80;;
44810;SDS011;30526;52.184;4.476;2023-04-15T10:19:42;4.15;;;1.98;;
44810;SDS011;30526;52.184;4.476;2023-04-15T10:22:09;5.57;;;2.47;;
44810;SDS011;30526;52.184;4.476;2023-04-15T10:24:35;6.07;;;2.75;;
44810;SDS011;30526;52.184;4.476;2023-04-15T10:27:04;6.32;;;2.65;;
44810;SDS011;30526;52.184;4.476;2023-04-15T10:29:30;8.50;;;3.15;;
44810;SDS011;30526;52.184;4.476;2023-04-15T10:31:58;4.43;;;2.95;;
44810;SDS011;30526;52.184;4.476;2023-04-15T10:34:24;4.35;;;2.72;;
44810;SDS011;30526;52.184;4.476;2023-04-15T10:36:53;5.63;;;3.72;;
44810;SDS011;30526;52.184;4.476;2023-04-15T10:39:39;4.32;;;2.70;;
44810;SDS011;30526;52.184;4.476;2023-04-15T10:42:07;3.65;;;2.63;;
44810;SDS011;30526;52.184;4.476;2023-04-15T10:44:55;3.42;;;2.20;;
44810;SDS011;30526;52.184;4.476;2023-04-15T10:47:21;4.35;;;3.40;;
44810;SDS011;30526;52.184;4.476;2023-04-15T10:49:48;8.20;;;3.50;;
44810;SDS011;30526;52.184;4.476;2023-04-15T10:52:15;4.93;;;2.35;;
44810;SDS011;30526;52.184;4.476;2023-04-15T10:54:42;7.47;;;3.05;;
44810;SDS011;30526;52.184;4.476;2023-04-15T10:57:13;5.75;;;3.10;;
44810;SDS011;30526;52.184;4.476;2023-04-15T10:59:58;6.05;;;2.78;;
44810;SDS011;30526;52.184;4.476;2023-04-15T11:02:37;4.20;;;2.17;;
44810;SDS011;30526;52.184;4.476;2023-04-15T11:05:05;5.35;;;2.65;;
44810;SDS011;30526;52.184;4.476;2023-04-15T11:07:38;8.20;;;2.60;;
44810;SDS011;30526;52.184;4.476;2023-04-15T11:12:52;4.65;;;2.90;;
44810;SDS011;30526;52.184;4.476;2023-04-15T11:17:51;3.80;;;2.40;;
44810;SDS011;30526;52.184;4.476;2023-04-15T11:20:17;3.75;;;2.15;;
44810;SDS011;30526;52.184;4.476;2023-04-15T11:22:47;3.40;;;2.15;;
44810;SDS011;30526;52.184;4.476;2023-04-15T11:25:26;6.82;;;2.50;;
44810;SDS011;30526;52.184;4.476;2023-04-15T11:27:53;6.60;;;2.90;;
44810;SDS011;30526;52.184;4.476;2023-04-15T11:30:23;8.07;;;3.03;;
44810;SDS011;30526;52.184;4.476;2023-04-15T11:32:50;4.65;;;2.92;;
44810;SDS011;30526;52.184;4.476;2023-04-15T11:35:17;5.03;;;2.85;;
44810;SDS011;30526;52.184;4.476;2023-04-15T11:37:43;6.77;;;3.33;;
44810;SDS011;30526;52.184;4.476;2023-04-15T11:40:10;7.15;;;3.08;;
44810;SDS011;30526;52.184;4.476;2023-04-15T11:42:36;5.78;;;3.25;;
44810;SDS011;30526;52.184;4.476;2023-04-15T11:45:06;8.77;;;3.40;;
44810;SDS011;30526;52.184;4.476;2023-04-15T11:47:33;5.97;;;3.83;;
44810;SDS011;30526;52.184;4.476;2023-04-15T11:50:12;6.80;;;3.20;;
44810;SDS011;30526;52.184;4.476;2023-04-15T11:52:38;13.25;;;4.45;;
44810;SDS011;30526;52.184;4.476;2023-04-15T11:55:06;6.57;;;3.30;;
44810;SDS011;30526;52.184;4.476;2023-04-15T11:57:33;6.95;;;3.38;;
44810;SDS011;30526;52.184;4.476;2023-04-15T12:00:00;5.18;;;2.08;;
44810;SDS011;30526;52.184;4.476;2023-04-15T12:02:29;9.45;;;3.10;;
44810;SDS011;30526;52.184;4.476;2023-04-15T12:05:03;7.63;;;2.70;;
44810;SDS011;30526;52.184;4.476;2023-04-15T12:07:30;4.95;;;3.05;;
44810;SDS011;30526;52.184;4.476;2023-04-15T12:09:56;5.47;;;2.75;;
44810;SDS011;30526;52.184;4.476;2023-04-15T12:12:29;6.57;;;2.30;;
44810;SDS011;30526;52.184;4.476;2023-04-15T12:14:55;8.52;;;2.97;;
44810;SDS011;30526;52.184;4.476;2023-04-15T12:17:22;7.93;;;3.57;;
44810;SDS011;30526;52.184;4.476;2023-04-15T12:19:54;7.57;;;3.58;;
44810;SDS011;30526;52.184;4.476;2023-04-15T12:22:21;6.97;;;3.75;;
44810;SDS011;30526;52.184;4.476;2023-04-15T12:24:47;7.95;;;3.70;;
44810;SDS011;30526;52.184;4.476;2023-04-15T12:27:24;8.68;;;3.97;;
44810;SDS011;30526;52.184;4.476;2023-04-15T12:29:56;6.82;;;3.70;;
44810;SDS011;30526;52.184;4.476;2023-04-15T12:32:28;10.63;;;4.22;;
44810;SDS011;30526;52.184;4.476;2023-04-15T12:34:54;7.47;;;3.72;;
44810;SDS011;30526;52.184;4.476;2023-04-15T12:37:20;9.68;;;3.85;;
44810;SDS011;30526;52.184;4.476;2023-04-15T12:39:47;6.72;;;3.42;;
44810;SDS011;30526;52.184;4.476;2023-04-15T12:42:13;9.70;;;3.78;;
44810;SDS011;30526;52.184;4.476;2023-04-15T12:44:40;9.93;;;3.15;;
44810;SDS011;30526;52.184;4.476;2023-04-15T12:47:06;8.00;;;2.80;;
44810;SDS011;30526;52.184;4.476;2023-04-15T12:49:33;6.03;;;3.08;;
44810;SDS011;30526;52.184;4.476;2023-04-15T12:51:59;8.38;;;3.05;;
44810;SDS011;30526;52.184;4.476;2023-04-15T12:54:26;12.15;;;3.35;;
44810;SDS011;30526;52.184;4.476;2023-04-15T12:56:53;4.15;;;2.20;;
44810;SDS011;30526;52.184;4.476;2023-04-15T12:59:19;9.43;;;2.78;;
44810;SDS011;30526;52.184;4.476;2023-04-15T13:01:46;6.43;;;3.10;;
44810;SDS011;30526;52.184;4.476;2023-04-15T13:04:13;6.13;;;2.53;;
44810;SDS011;30526;52.184;4.476;2023-04-15T13:06:39;6.85;;;2.88;;
44810;SDS011;30526;52.184;4.476;2023-04-15T13:09:05;6.60;;;2.50;;
44810;SDS011;30526;52.184;4.476;2023-04-15T13:11:31;9.27;;;2.78;;
44810;SDS011;30526;52.184;4.476;2023-04-15T13:13:59;6.88;;;3.38;;
44810;SDS011;30526;52.184;4.476;2023-04-15T13:16:25;8.48;;;2.70;;
44810;SDS011;30526;52.184;4.476;2023-04-15T13:18:51;6.90;;;2.80;;
44810;SDS011;30526;52.184;4.476;2023-04-15T13:21:18;4.82;;;2.78;;
44810;SDS011;30526;52.184;4.476;2023-04-15T13:23:44;8.37;;;2.87;;
44810;SDS011;30526;52.184;4.476;2023-04-15T13:26:10;8.87;;;3.10;;
44810;SDS011;30526;52.184;4.476;2023-04-15T13:28:36;8.07;;;2.85;;
44810;SDS011;30526;52.184;4.476;2023-04-15T13:31:04;11.05;;;3.33;;
44810;SDS011;30526;52.184;4.476;2023-04-15T13:33:30;9.75;;;3.03;;
44810;SDS011;30526;52.184;4.476;2023-04-15T13:35:56;5.88;;;2.88;;
44810;SDS011;30526;52.184;4.476;2023-04-15T13:38:23;8.65;;;2.67;;
44810;SDS011;30526;52.184;4.476;2023-04-15T13:43:16;6.00;;;3.00;;
44810;SDS011;30526;52.184;4.476;2023-04-15T13:45:42;6.85;;;2.70;;
44810;SDS011;30526;52.184;4.476;2023-04-15T13:48:08;5.75;;;2.28;;
44810;SDS011;30526;52.184;4.476;2023-04-15T13:50:34;7.78;;;2.78;;
44810;SDS011;30526;52.184;4.476;2023-04-15T13:53:00;7.32;;;2.70;;
44810;SDS011;30526;52.184;4.476;2023-04-15T13:55:26;6.75;;;2.28;;
44810;SDS011;30526;52.184;4.476;2023-04-15T13:57:52;6.40;;;2.28;;
44810;SDS011;30526;52.184;4.476;2023-04-15T14:00:19;11.45;;;3.10;;
44810;SDS011;30526;52.184;4.476;2023-04-15T14:02:45;6.30;;;2.50;;
44810;SDS011;30526;52.184;4.476;2023-04-15T14:05:11;11.60;;;3.30;;
44810;SDS011;30526;52.184;4.476;2023-04-15T14:07:37;7.18;;;2.35;;
44810;SDS011;30526;52.184;4.476;2023-04-15T14:10:03;12.27;;;2.70;;
44810;SDS011;30526;52.184;4.476;2023-04-15T14:12:29;8.93;;;2.30;;
44810;SDS011;30526;52.184;4.476;2023-04-15T14:14:55;9.50;;;2.53;;
44810;SDS011;30526;52.184;4.476;2023-04-15T14:17:21;9.75;;;3.08;;
44810;SDS011;30526;52.184;4.476;2023-04-15T14:19:47;7.13;;;2.60;;
44810;SDS011;30526;52.184;4.476;2023-04-15T14:22:13;11.40;;;2.92;;
44810;SDS011;30526;52.184;4.476;2023-04-15T14:24:40;7.93;;;2.87;;
44810;SDS011;30526;52.184;4.476;2023-04-15T14:27:06;9.80;;;3.00;;
44810;SDS011;30526;52.184;4.476;2023-04-15T14:29:32;10.18;;;2.20;;
44810;SDS011;30526;52.184;4.476;2023-04-15T14:31:59;9.38;;;2.35;;
44810;SDS011;30526;52.184;4.476;2023-04-15T14:34:25;10.67;;;3.20;;
44810;SDS011;30526;52.184;4.476;2023-04-15T14:36:51;17.35;;;3.33;;
44810;SDS011;30526;52.184;4.476;2023-04-15T14:39:17;7.38;;;2.60;;
44810;SDS011;30526;52.184;4.476;2023-04-15T14:41:44;9.37;;;2.20;;
44810;SDS011;30526;52.184;4.476;2023-04-15T14:44:10;12.03;;;2.87;;
44810;SDS011;30526;52.184;4.476;2023-04-15T14:46:36;9.82;;;2.97;;